sensor_id;sensor_type;location;lat;lon;timestamp;pressure;altitude;pressure_sealevel;temperature;humidity
7407;BME280;3745;56.964;24.128;2024-03-06T00:00:48;102785.47;;;0.17;100.00
7407;BME280;3745;56.964;24.128;2024-03-06T00:03:13;102780.50;;;0.17;100.00
7407;BME280;3745;56.964;24.128;2024-03-06T00:05:39;102785.47;;;0.17;100.00
7407;BME280;3745;56.964;24.128;2024-03-06T00:08:04;102788.97;;;0.19;100.00
7407;BME280;3745;56.964;24.128;2024-03-06T00:10:30;102748.53;;;-0.07;100.00
7407;BME280;3745;56.964;24.128;2024-03-06T00:12:56;102762.75;;;0.04;100.00
7407;BME280;3745;56.964;24.128;2024-03-06T00:15:21;102785.22;;;0.14;100.00
7407;BME280;3745;56.964;24.128;2024-03-06T00:17:47;102778.72;;;0.06;100.00
7407;BME280;3745;56.964;24.128;2024-03-06T00:20:12;102779.56;;;0.07;100.00
7407;BME280;3745;56.964;24.128;2024-03-06T00:22:39;102735.75;;;-0.20;100.00
7407;BME280;3745;56.964;24.128;2024-03-06T00:25:05;102800.78;;;0.12;100.00
7407;BME280;3745;56.964;24.128;2024-03-06T00:27:31;102801.38;;;0.09;100.00
7407;BME280;3745;56.964;24.128;2024-03-06T00:29:56;102780.09;;;-0.06;100.00
7407;BME280;3745;56.964;24.128;2024-03-06T00:32:22;102803.19;;;0.02;100.00
7407;BME280;3745;56.964;24.128;2024-03-06T00:34:49;102808.78;;;-0.01;100.00
7407;BME280;3745;56.964;24.128;2024-03-06T00:37:15;102811.44;;;-0.08;100.00
7407;BME280;3745;56.964;24.128;2024-03-06T00:39:40;102808.88;;;-0.18;100.00
7407;BME280;3745;56.964;24.128;2024-03-06T00:42:06;102808.03;;;-0.19;100.00
7407;BME280;3745;56.964;24.128;2024-03-06T00:44:34;102816.16;;;-0.11;100.00
7407;BME280;3745;56.964;24.128;2024-03-06T00:47:00;102796.69;;;-0.34;100.00
7407;BME280;3745;56.964;24.128;2024-03-06T00:49:25;102824.84;;;-0.16;100.00
7407;BME280;3745;56.964;24.128;2024-03-06T00:51:51;102760.84;;;-0.55;100.00
7407;BME280;3745;56.964;24.128;2024-03-06T00:54:17;102791.78;;;-0.42;100.00
7407;BME280;3745;56.964;24.128;2024-03-06T00:56:42;102815.75;;;-0.34;100.00
7407;BME280;3745;56.964;24.128;2024-03-06T00:59:08;102832.03;;;-0.19;100.00
7407;BME280;3745;56.964;24.128;2024-03-06T01:01:33;102834.69;;;-0.26;100.00
7407;BME280;3745;56.964;24.128;2024-03-06T01:03:59;102782.25;;;-0.57;100.00
7407;BME280;3745;56.964;24.128;2024-03-06T01:06:25;102830.00;;;-0.23;100.00
7407;BME280;3745;56.964;24.128;2024-03-06T01:08:50;102831.50;;;-0.25;100.00
7407;BME280;3745;56.964;24.128;2024-03-06T01:11:16;102834.53;;;-0.19;100.00
7407;BME280;3745;56.964;24.128;2024-03-06T01:13:41;102817.16;;;-0.28;100.00
7407;BME280;3745;56.964;24.128;2024-03-06T01:16:07;102817.97;;;-0.37;100.00
7407;BME280;3745;56.964;24.128;2024-03-06T01:18:33;102830.66;;;-0.34;100.00
7407;BME280;3745;56.964;24.128;2024-03-06T01:20:59;102834.44;;;-0.29;100.00
7407;BME280;3745;56.964;24.128;2024-03-06T01:23:25;102765.94;;;-0.72;100.00
7407;BME280;3745;56.964;24.128;2024-03-06T01:25:50;102829.84;;;-0.43;100.00
7407;BME280;3745;56.964;24.128;2024-03-06T01:28:16;102787.09;;;-0.67;100.00
7407;BME280;3745;56.964;24.128;2024-03-06T01:30:41;102836.81;;;-0.39;100.00
7407;BME280;3745;56.964;24.128;2024-03-06T01:33:07;102822.38;;;-0.43;100.00
7407;BME280;3745;56.964;24.128;2024-03-06T01:35:32;102820.63;;;-0.44;100.00
7407;BME280;3745;56.964;24.128;2024-03-06T01:37:58;102772.09;;;-0.77;100.00
7407;BME280;3745;56.964;24.128;2024-03-06T01:40:23;102835.38;;;-0.37;100.00
7407;BME280;3745;56.964;24.128;2024-03-06T01:42:49;102839.41;;;-0.29;100.00
7407;BME280;3745;56.964;24.128;2024-03-06T01:45:15;102843.84;;;-0.35;100.00
7407;BME280;3745;56.964;24.128;2024-03-06T01:47:41;102840.06;;;-0.40;100.00
7407;BME280;3745;56.964;24.128;2024-03-06T01:50:07;102827.25;;;-0.53;100.00
7407;BME280;3745;56.964;24.128;2024-03-06T01:52:35;102844.50;;;-0.46;100.00
7407;BME280;3745;56.964;24.128;2024-03-06T01:55:02;102846.50;;;-0.42;100.00
7407;BME280;3745;56.964;24.128;2024-03-06T01:57:29;102813.56;;;-0.59;100.00
7407;BME280;3745;56.964;24.128;2024-03-06T01:59:55;102856.16;;;-0.45;100.00
7407;BME280;3745;56.964;24.128;2024-03-06T02:02:21;102844.78;;;-0.43;100.00
7407;BME280;3745;56.964;24.128;2024-03-06T02:04:46;102832.25;;;-0.53;100.00
7407;BME280;3745;56.964;24.128;2024-03-06T02:07:13;102847.81;;;-0.37;100.00
7407;BME280;3745;56.964;24.128;2024-03-06T02:09:40;102848.81;;;-0.35;100.00
7407;BME280;3745;56.964;24.128;2024-03-06T02:12:06;102841.81;;;-0.39;100.00
7407;BME280;3745;56.964;24.128;2024-03-06T02:14:36;102850.03;;;-0.40;100.00
7407;BME280;3745;56.964;24.128;2024-03-06T02:17:01;102813.84;;;-0.56;100.00
7407;BME280;3745;56.964;24.128;2024-03-06T02:19:41;102828.47;;;-0.59;100.00
7407;BME280;3745;56.964;24.128;2024-03-06T02:22:07;102807.16;;;-0.74;100.00
7407;BME280;3745;56.964;24.128;2024-03-06T02:24:34;102850.63;;;-0.51;100.00
7407;BME280;3745;56.964;24.128;2024-03-06T02:26:59;102850.09;;;-0.58;100.00
7407;BME280;3745;56.964;24.128;2024-03-06T02:29:25;102855.34;;;-0.55;100.00
7407;BME280;3745;56.964;24.128;2024-03-06T02:31:51;102851.84;;;-0.57;100.00
7407;BME280;3745;56.964;24.128;2024-03-06T02:34:16;102860.03;;;-0.58;100.00
7407;BME280;3745;56.964;24.128;2024-03-06T02:36:42;102857.28;;;-0.61;100.00
7407;BME280;3745;56.964;24.128;2024-03-06T02:39:08;102841.03;;;-0.57;100.00
7407;BME280;3745;56.964;24.128;2024-03-06T02:41:36;102850.38;;;-0.55;100.00
7407;BME280;3745;56.964;24.128;2024-03-06T02:44:02;102860.91;;;-0.57;100.00
7407;BME280;3745;56.964;24.128;2024-03-06T02:46:29;102866.50;;;-0.60;100.00
7407;BME280;3745;56.964;24.128;2024-03-06T02:48:54;102866.75;;;-0.57;100.00
7407;BME280;3745;56.964;24.128;2024-03-06T02:51:21;102790.22;;;-1.05;100.00
7407;BME280;3745;56.964;24.128;2024-03-06T02:53:47;102865.88;;;-0.57;100.00
7407;BME280;3745;56.964;24.128;2024-03-06T02:56:18;102868.53;;;-0.56;100.00
7407;BME280;3745;56.964;24.128;2024-03-06T02:58:44;102871.47;;;-0.60;100.00
7407;BME280;3745;56.964;24.128;2024-03-06T03:01:10;102873.50;;;-0.56;100.00
7407;BME280;3745;56.964;24.128;2024-03-06T03:03:36;102824.75;;;-0.81;100.00
7407;BME280;3745;56.964;24.128;2024-03-06T03:06:01;102860.97;;;-0.66;100.00
7407;BME280;3745;56.964;24.128;2024-03-06T03:08:28;102863.88;;;-0.70;100.00
7407;BME280;3745;56.964;24.128;2024-03-06T03:10:53;102878.47;;;-0.56;100.00
7407;BME280;3745;56.964;24.128;2024-03-06T03:13:19;102879.66;;;-0.61;100.00
7407;BME280;3745;56.964;24.128;2024-03-06T03:15:44;102802.38;;;-1.08;100.00
7407;BME280;3745;56.964;24.128;2024-03-06T03:18:10;102846.41;;;-0.88;100.00
7407;BME280;3745;56.964;24.128;2024-03-06T03:20:36;102877.31;;;-0.68;100.00
7407;BME280;3745;56.964;24.128;2024-03-06T03:23:02;102882.28;;;-0.68;100.00
7407;BME280;3745;56.964;24.128;2024-03-06T03:25:27;102821.66;;;-1.05;100.00
7407;BME280;3745;56.964;24.128;2024-03-06T03:27:53;102885.97;;;-0.73;100.00
7407;BME280;3745;56.964;24.128;2024-03-06T03:30:18;102883.50;;;-0.73;100.00
7407;BME280;3745;56.964;24.128;2024-03-06T03:32:47;102887.75;;;-0.72;100.00
7407;BME280;3745;56.964;24.128;2024-03-06T03:35:14;102887.28;;;-0.68;100.00
7407;BME280;3745;56.964;24.128;2024-03-06T03:37:39;102895.47;;;-0.69;100.00
7407;BME280;3745;56.964;24.128;2024-03-06T03:40:06;102859.59;;;-0.89;100.00
7407;BME280;3745;56.964;24.128;2024-03-06T03:42:32;102891.69;;;-0.74;100.00
7407;BME280;3745;56.964;24.128;2024-03-06T03:44:58;102892.25;;;-0.68;100.00
7407;BME280;3745;56.964;24.128;2024-03-06T03:47:23;102882.66;;;-0.82;100.00
7407;BME280;3745;56.964;24.128;2024-03-06T03:49:49;102889.66;;;-0.78;100.00
7407;BME280;3745;56.964;24.128;2024-03-06T03:52:15;102819.06;;;-1.24;100.00
7407;BME280;3745;56.964;24.128;2024-03-06T03:54:41;102901.34;;;-0.77;100.00
7407;BME280;3745;56.964;24.128;2024-03-06T03:57:07;102829.28;;;-1.21;100.00
7407;BME280;3745;56.964;24.128;2024-03-06T03:59:34;102875.84;;;-0.93;100.00
7407;BME280;3745;56.964;24.128;2024-03-06T04:02:02;102838.66;;;-1.27;100.00
7407;BME280;3745;56.964;24.128;2024-03-06T04:04:27;102907.94;;;-0.86;100.00
7407;BME280;3745;56.964;24.128;2024-03-06T04:06:54;102904.00;;;-0.84;100.00
7407;BME280;3745;56.964;24.128;2024-03-06T04:09:19;102884.16;;;-0.92;100.00
7407;BME280;3745;56.964;24.128;2024-03-06T04:11:45;102899.91;;;-0.92;100.00
7407;BME280;3745;56.964;24.128;2024-03-06T04:14:11;102902.41;;;-0.92;100.00
7407;BME280;3745;56.964;24.128;2024-03-06T04:16:36;102900.69;;;-0.93;100.00
7407;BME280;3745;56.964;24.128;2024-03-06T04:19:02;102900.81;;;-0.91;100.00
7407;BME280;3745;56.964;24.128;2024-03-06T04:21:28;102852.06;;;-1.25;100.00
7407;BME280;3745;56.964;24.128;2024-03-06T04:23:54;102910.44;;;-0.86;100.00
7407;BME280;3745;56.964;24.128;2024-03-06T04:26:20;102909.72;;;-0.93;100.00
7407;BME280;3745;56.964;24.128;2024-03-06T04:28:45;102904.59;;;-0.95;100.00
7407;BME280;3745;56.964;24.128;2024-03-06T04:31:11;102881.00;;;-1.17;100.00
7407;BME280;3745;56.964;24.128;2024-03-06T04:33:37;102916.66;;;-1.08;100.00
7407;BME280;3745;56.964;24.128;2024-03-06T04:36:03;102917.22;;;-1.02;100.00
7407;BME280;3745;56.964;24.128;2024-03-06T04:38:31;102882.63;;;-1.26;100.00
7407;BME280;3745;56.964;24.128;2024-03-06T04:40:57;102919.28;;;-1.15;100.00
7407;BME280;3745;56.964;24.128;2024-03-06T04:43:23;102867.03;;;-1.42;100.00
7407;BME280;3745;56.964;24.128;2024-03-06T04:45:48;102919.00;;;-1.18;100.00
7407;BME280;3745;56.964;24.128;2024-03-06T04:48:14;102893.88;;;-1.30;100.00
7407;BME280;3745;56.964;24.128;2024-03-06T04:50:39;102895.63;;;-1.37;100.00
7407;BME280;3745;56.964;24.128;2024-03-06T04:53:05;102907.31;;;-1.36;100.00
7407;BME280;3745;56.964;24.128;2024-03-06T04:55:31;102916.06;;;-1.31;100.00
7407;BME280;3745;56.964;24.128;2024-03-06T04:57:57;102914.91;;;-1.43;100.00
7407;BME280;3745;56.964;24.128;2024-03-06T05:00:26;102879.16;;;-1.54;100.00
7407;BME280;3745;56.964;24.128;2024-03-06T05:02:54;102915.50;;;-1.37;100.00
7407;BME280;3745;56.964;24.128;2024-03-06T05:05:21;102938.13;;;-1.26;100.00
7407;BME280;3745;56.964;24.128;2024-03-06T05:07:48;102937.28;;;-1.26;100.00
7407;BME280;3745;56.964;24.128;2024-03-06T05:10:14;102939.91;;;-1.33;100.00
7407;BME280;3745;56.964;24.128;2024-03-06T05:12:41;102935.34;;;-1.37;100.00
7407;BME280;3745;56.964;24.128;2024-03-06T05:15:07;102943.81;;;-1.35;100.00
7407;BME280;3745;56.964;24.128;2024-03-06T05:17:33;102943.53;;;-1.38;100.00
7407;BME280;3745;56.964;24.128;2024-03-06T05:19:59;102913.44;;;-1.58;100.00
7407;BME280;3745;56.964;24.128;2024-03-06T05:22:25;102953.59;;;-1.20;100.00
7407;BME280;3745;56.964;24.128;2024-03-06T05:24:51;102942.34;;;-1.16;100.00
7407;BME280;3745;56.964;24.128;2024-03-06T05:27:18;102934.78;;;-1.26;100.00
7407;BME280;3745;56.964;24.128;2024-03-06T05:29:44;102954.94;;;-1.23;100.00
7407;BME280;3745;56.964;24.128;2024-03-06T05:32:10;102942.97;;;-1.27;100.00
7407;BME280;3745;56.964;24.128;2024-03-06T05:34:35;102955.22;;;-1.20;100.00
7407;BME280;3745;56.964;24.128;2024-03-06T05:37:01;102953.75;;;-1.10;100.00
7407;BME280;3745;56.964;24.128;2024-03-06T05:39:29;102923.09;;;-1.27;100.00
7407;BME280;3745;56.964;24.128;2024-03-06T05:41:55;102964.56;;;-1.09;100.00
7407;BME280;3745;56.964;24.128;2024-03-06T05:44:21;102752.03;;;-2.20;100.00
7407;BME280;3745;56.964;24.128;2024-03-06T05:46:47;102900.31;;;-1.40;100.00
7407;BME280;3745;56.964;24.128;2024-03-06T05:49:13;102957.25;;;-0.99;100.00
7407;BME280;3745;56.964;24.128;2024-03-06T05:51:39;102969.22;;;-0.95;100.00
7407;BME280;3745;56.964;24.128;2024-03-06T05:54:04;102955.22;;;-1.03;100.00
7407;BME280;3745;56.964;24.128;2024-03-06T05:56:34;102980.31;;;-0.83;100.00
7407;BME280;3745;56.964;24.128;2024-03-06T05:59:00;102962.50;;;-0.96;100.00
7407;BME280;3745;56.964;24.128;2024-03-06T06:01:30;102980.78;;;-0.87;100.00
7407;BME280;3745;56.964;24.128;2024-03-06T06:03:56;102950.81;;;-0.97;100.00
7407;BME280;3745;56.964;24.128;2024-03-06T06:06:22;102983.22;;;-0.70;100.00
7407;BME280;3745;56.964;24.128;2024-03-06T06:08:48;102986.41;;;-0.53;100.00
7407;BME280;3745;56.964;24.128;2024-03-06T06:11:13;102946.94;;;-0.68;100.00
7407;BME280;3745;56.964;24.128;2024-03-06T06:13:39;102994.19;;;-0.23;100.00
7407;BME280;3745;56.964;24.128;2024-03-06T06:16:05;102964.34;;;-0.23;100.00
7407;BME280;3745;56.964;24.128;2024-03-06T06:18:32;102990.59;;;-0.08;100.00
7407;BME280;3745;56.964;24.128;2024-03-06T06:20:58;102981.59;;;-0.16;100.00
7407;BME280;3745;56.964;24.128;2024-03-06T06:23:24;102985.53;;;-0.18;100.00
7407;BME280;3745;56.964;24.128;2024-03-06T06:25:49;102988.00;;;-0.18;100.00
7407;BME280;3745;56.964;24.128;2024-03-06T06:28:15;102986.84;;;-0.13;100.00
7407;BME280;3745;56.964;24.128;2024-03-06T06:30:41;103010.78;;;-0.05;100.00
7407;BME280;3745;56.964;24.128;2024-03-06T06:33:09;102983.59;;;-0.12;100.00
7407;BME280;3745;56.964;24.128;2024-03-06T06:35:35;102986.84;;;-0.13;100.00
7407;BME280;3745;56.964;24.128;2024-03-06T06:38:01;103001.13;;;-0.02;100.00
7407;BME280;3745;56.964;24.128;2024-03-06T06:40:28;103011.84;;;0.24;100.00
7407;BME280;3745;56.964;24.128;2024-03-06T06:42:54;103010.13;;;0.61;100.00
7407;BME280;3745;56.964;24.128;2024-03-06T06:45:20;102989.25;;;0.69;100.00
7407;BME280;3745;56.964;24.128;2024-03-06T06:47:51;102986.91;;;0.70;100.00
7407;BME280;3745;56.964;24.128;2024-03-06T06:50:16;102995.63;;;1.13;100.00
7407;BME280;3745;56.964;24.128;2024-03-06T06:52:42;102982.59;;;1.25;100.00
7407;BME280;3745;56.964;24.128;2024-03-06T06:55:08;103006.19;;;1.68;100.00
7407;BME280;3745;56.964;24.128;2024-03-06T06:57:37;103027.69;;;1.86;100.00
7407;BME280;3745;56.964;24.128;2024-03-06T07:00:04;103002.22;;;1.80;100.00
7407;BME280;3745;56.964;24.128;2024-03-06T07:02:37;102958.19;;;1.31;100.00
7407;BME280;3745;56.964;24.128;2024-03-06T07:05:04;102954.13;;;1.23;100.00
7407;BME280;3745;56.964;24.128;2024-03-06T07:07:30;102960.44;;;1.09;100.00
7407;BME280;3745;56.964;24.128;2024-03-06T07:09:55;103027.81;;;1.48;100.00
7407;BME280;3745;56.964;24.128;2024-03-06T07:12:21;102961.00;;;0.97;100.00
7407;BME280;3745;56.964;24.128;2024-03-06T07:14:47;103028.00;;;1.31;100.00
7407;BME280;3745;56.964;24.128;2024-03-06T07:17:13;102968.22;;;0.94;100.00
7407;BME280;3745;56.964;24.128;2024-03-06T07:19:38;103034.19;;;1.26;100.00
7407;BME280;3745;56.964;24.128;2024-03-06T07:22:05;103030.72;;;1.24;100.00
7407;BME280;3745;56.964;24.128;2024-03-06T07:24:30;103032.66;;;1.37;100.00
7407;BME280;3745;56.964;24.128;2024-03-06T07:26:56;103029.22;;;1.26;100.00
7407;BME280;3745;56.964;24.128;2024-03-06T07:29:22;102990.38;;;1.09;100.00
7407;BME280;3745;56.964;24.128;2024-03-06T07:31:47;103033.94;;;1.23;100.00
7407;BME280;3745;56.964;24.128;2024-03-06T07:34:13;102993.94;;;1.03;100.00
7407;BME280;3745;56.964;24.128;2024-03-06T07:36:40;103007.53;;;1.25;100.00
7407;BME280;3745;56.964;24.128;2024-03-06T07:39:06;102992.84;;;1.28;100.00
7407;BME280;3745;56.964;24.128;2024-03-06T07:41:32;103017.09;;;1.49;100.00
7407;BME280;3745;56.964;24.128;2024-03-06T07:43:59;102999.47;;;1.38;100.00
7407;BME280;3745;56.964;24.128;2024-03-06T07:46:25;102992.38;;;1.32;100.00
7407;BME280;3745;56.964;24.128;2024-03-06T07:48:51;103040.72;;;1.53;100.00
7407;BME280;3745;56.964;24.128;2024-03-06T07:51:17;103020.75;;;1.53;100.00
7407;BME280;3745;56.964;24.128;2024-03-06T07:53:43;103012.63;;;1.55;100.00
7407;BME280;3745;56.964;24.128;2024-03-06T07:56:12;102974.06;;;1.52;100.00
7407;BME280;3745;56.964;24.128;2024-03-06T07:58:38;102989.94;;;1.52;100.00
7407;BME280;3745;56.964;24.128;2024-03-06T08:01:05;103007.22;;;1.80;100.00
7407;BME280;3745;56.964;24.128;2024-03-06T08:03:33;103039.47;;;2.07;100.00
7407;BME280;3745;56.964;24.128;2024-03-06T08:05:59;102992.00;;;1.77;100.00
7407;BME280;3745;56.964;24.128;2024-03-06T08:08:25;103038.59;;;2.06;100.00
7407;BME280;3745;56.964;24.128;2024-03-06T08:10:50;102993.25;;;1.92;100.00
7407;BME280;3745;56.964;24.128;2024-03-06T08:13:16;103029.50;;;2.07;100.00
7407;BME280;3745;56.964;24.128;2024-03-06T08:15:44;103042.25;;;2.20;100.00
7407;BME280;3745;56.964;24.128;2024-03-06T08:18:10;103010.75;;;2.02;100.00
7407;BME280;3745;56.964;24.128;2024-03-06T08:20:36;102997.03;;;1.97;100.00
7407;BME280;3745;56.964;24.128;2024-03-06T08:23:02;103041.50;;;2.31;100.00
7407;BME280;3745;56.964;24.128;2024-03-06T08:25:28;103000.53;;;2.19;100.00
7407;BME280;3745;56.964;24.128;2024-03-06T08:27:54;103041.53;;;2.51;100.00
7407;BME280;3745;56.964;24.128;2024-03-06T08:30:19;103034.78;;;2.60;100.00
7407;BME280;3745;56.964;24.128;2024-03-06T08:32:45;103009.53;;;2.47;100.00
7407;BME280;3745;56.964;24.128;2024-03-06T08:35:12;103038.03;;;2.69;100.00
7407;BME280;3745;56.964;24.128;2024-03-06T08:37:41;103015.28;;;2.56;100.00
7407;BME280;3745;56.964;24.128;2024-03-06T08:40:07;103007.03;;;2.57;100.00
7407;BME280;3745;56.964;24.128;2024-03-06T08:42:36;103038.00;;;2.90;100.00
7407;BME280;3745;56.964;24.128;2024-03-06T08:45:02;102984.66;;;2.59;100.00
7407;BME280;3745;56.964;24.128;2024-03-06T08:47:27;102989.31;;;2.44;100.00
7407;BME280;3745;56.964;24.128;2024-03-06T08:49:53;103021.50;;;2.82;100.00
7407;BME280;3745;56.964;24.128;2024-03-06T08:52:19;103025.53;;;2.80;100.00
7407;BME280;3745;56.964;24.128;2024-03-06T08:54:46;103018.47;;;2.96;100.00
7407;BME280;3745;56.964;24.128;2024-03-06T08:57:12;103039.44;;;3.08;100.00
7407;BME280;3745;56.964;24.128;2024-03-06T08:59:38;103007.09;;;2.89;100.00
7407;BME280;3745;56.964;24.128;2024-03-06T09:02:17;103019.44;;;3.08;100.00
7407;BME280;3745;56.964;24.128;2024-03-06T09:04:44;102959.88;;;3.14;100.00
7407;BME280;3745;56.964;24.128;2024-03-06T09:07:10;103016.06;;;3.49;100.00
7407;BME280;3745;56.964;24.128;2024-03-06T09:09:36;103024.88;;;3.34;100.00
7407;BME280;3745;56.964;24.128;2024-03-06T09:12:09;103029.47;;;3.40;100.00
7407;BME280;3745;56.964;24.128;2024-03-06T09:14:40;103032.59;;;3.47;100.00
7407;BME280;3745;56.964;24.128;2024-03-06T09:17:06;103013.59;;;3.39;100.00
7407;BME280;3745;56.964;24.128;2024-03-06T09:19:34;103028.59;;;3.39;100.00
7407;BME280;3745;56.964;24.128;2024-03-06T09:22:01;103032.69;;;3.49;100.00
7407;BME280;3745;56.964;24.128;2024-03-06T09:24:28;103041.09;;;3.49;100.00
7407;BME280;3745;56.964;24.128;2024-03-06T09:26:54;103034.28;;;3.58;100.00
7407;BME280;3745;56.964;24.128;2024-03-06T09:29:19;103029.00;;;3.65;100.00
7407;BME280;3745;56.964;24.128;2024-03-06T09:31:46;103012.88;;;3.62;100.00
7407;BME280;3745;56.964;24.128;2024-03-06T09:34:13;103046.69;;;3.78;100.00
7407;BME280;3745;56.964;24.128;2024-03-06T09:36:46;103047.16;;;3.84;100.00
7407;BME280;3745;56.964;24.128;2024-03-06T09:39:13;103010.94;;;3.69;100.00
7407;BME280;3745;56.964;24.128;2024-03-06T09:41:45;103052.66;;;3.91;100.00
7407;BME280;3745;56.964;24.128;2024-03-06T09:44:12;103051.00;;;4.13;100.00
7407;BME280;3745;56.964;24.128;2024-03-06T09:46:43;103002.09;;;3.84;100.00
7407;BME280;3745;56.964;24.128;2024-03-06T09:49:12;103048.50;;;4.13;100.00
7407;BME280;3745;56.964;24.128;2024-03-06T09:51:45;103050.94;;;4.23;100.00
7407;BME280;3745;56.964;24.128;2024-03-06T09:54:12;103050.19;;;4.24;100.00
7407;BME280;3745;56.964;24.128;2024-03-06T09:56:44;103032.72;;;4.14;100.00
7407;BME280;3745;56.964;24.128;2024-03-06T09:59:10;103021.16;;;4.16;100.00
7407;BME280;3745;56.964;24.128;2024-03-06T10:01:58;103041.53;;;4.42;100.00
7407;BME280;3745;56.964;24.128;2024-03-06T10:04:25;102980.84;;;4.13;100.00
7407;BME280;3745;56.964;24.128;2024-03-06T10:06:59;103038.97;;;4.52;100.00
7407;BME280;3745;56.964;24.128;2024-03-06T10:09:26;103001.34;;;4.19;100.00
7407;BME280;3745;56.964;24.128;2024-03-06T10:11:53;102997.63;;;4.14;100.00
7407;BME280;3745;56.964;24.128;2024-03-06T10:14:19;103041.59;;;4.32;100.00
7407;BME280;3745;56.964;24.128;2024-03-06T10:16:55;103035.84;;;4.33;100.00
7407;BME280;3745;56.964;24.128;2024-03-06T10:19:25;103018.81;;;4.29;100.00
7407;BME280;3745;56.964;24.128;2024-03-06T10:21:53;103033.22;;;4.43;100.00
7407;BME280;3745;56.964;24.128;2024-03-06T10:24:23;103033.31;;;4.66;100.00
7407;BME280;3745;56.964;24.128;2024-03-06T10:26:52;103001.44;;;4.42;100.00
7407;BME280;3745;56.964;24.128;2024-03-06T10:29:21;103033.09;;;4.63;100.00
7407;BME280;3745;56.964;24.128;2024-03-06T10:34:16;103012.81;;;4.60;100.00
7407;BME280;3745;56.964;24.128;2024-03-06T10:36:42;102978.78;;;4.52;100.00
7407;BME280;3745;56.964;24.128;2024-03-06T10:39:11;103030.28;;;4.82;100.00
7407;BME280;3745;56.964;24.128;2024-03-06T10:41:40;103024.38;;;4.81;100.00
7407;BME280;3745;56.964;24.128;2024-03-06T10:44:12;103028.66;;;4.82;100.00
7407;BME280;3745;56.964;24.128;2024-03-06T10:46:44;103027.88;;;4.83;100.00
7407;BME280;3745;56.964;24.128;2024-03-06T10:49:13;103005.41;;;4.97;100.00
7407;BME280;3745;56.964;24.128;2024-03-06T10:51:43;103029.09;;;5.12;100.00
7407;BME280;3745;56.964;24.128;2024-03-06T10:54:13;102992.53;;;5.04;100.00
7407;BME280;3745;56.964;24.128;2024-03-06T10:56:39;103023.84;;;5.32;100.00
7407;BME280;3745;56.964;24.128;2024-03-06T10:59:10;102987.97;;;5.10;100.00
7407;BME280;3745;56.964;24.128;2024-03-06T11:01:37;103018.47;;;5.39;100.00
7407;BME280;3745;56.964;24.128;2024-03-06T11:04:05;103025.25;;;5.40;100.00
7407;BME280;3745;56.964;24.128;2024-03-06T11:06:31;103027.66;;;5.50;100.00
7407;BME280;3745;56.964;24.128;2024-03-06T11:08:56;102984.19;;;5.39;100.00
7407;BME280;3745;56.964;24.128;2024-03-06T11:11:23;103011.44;;;5.58;100.00
7407;BME280;3745;56.964;24.128;2024-03-06T11:13:49;102992.94;;;5.33;100.00
7407;BME280;3745;56.964;24.128;2024-03-06T11:16:15;103017.59;;;5.50;100.00
7407;BME280;3745;56.964;24.128;2024-03-06T11:18:41;103018.41;;;5.74;100.00
7407;BME280;3745;56.964;24.128;2024-03-06T11:24:12;103002.00;;;5.79;100.00
7407;BME280;3745;56.964;24.128;2024-03-06T11:27:03;102990.94;;;5.52;100.00
7407;BME280;3745;56.964;24.128;2024-03-06T11:29:29;103003.59;;;5.65;100.00
7407;BME280;3745;56.964;24.128;2024-03-06T11:32:05;102977.00;;;5.44;100.00
7407;BME280;3745;56.964;24.128;2024-03-06T11:34:36;103003.59;;;5.65;100.00
7407;BME280;3745;56.964;24.128;2024-03-06T11:37:06;102999.19;;;5.74;100.00
7407;BME280;3745;56.964;24.128;2024-03-06T11:39:37;103000.03;;;5.86;100.00
7407;BME280;3745;56.964;24.128;2024-03-06T11:42:03;102991.97;;;5.90;100.00
7407;BME280;3745;56.964;24.128;2024-03-06T11:44:34;102997.59;;;5.99;100.00
7407;BME280;3745;56.964;24.128;2024-03-06T11:47:04;102994.91;;;6.10;100.00
7407;BME280;3745;56.964;24.128;2024-03-06T11:49:32;102993.38;;;6.12;100.00
7407;BME280;3745;56.964;24.128;2024-03-06T11:52:09;102995.56;;;6.07;100.00
7407;BME280;3745;56.964;24.128;2024-03-06T11:54:35;102958.78;;;5.71;100.00
7407;BME280;3745;56.964;24.128;2024-03-06T11:57:03;102996.94;;;6.02;100.00
7407;BME280;3745;56.964;24.128;2024-03-06T11:59:33;102941.50;;;5.87;100.00
7407;BME280;3745;56.964;24.128;2024-03-06T12:02:04;102956.25;;;6.08;100.00
7407;BME280;3745;56.964;24.128;2024-03-06T12:04:31;102954.28;;;6.04;100.00
7407;BME280;3745;56.964;24.128;2024-03-06T12:06:59;102979.81;;;6.10;100.00
7407;BME280;3745;56.964;24.128;2024-03-06T12:09:25;102981.97;;;6.17;100.00
7407;BME280;3745;56.964;24.128;2024-03-06T12:11:52;102982.78;;;6.29;100.00
7407;BME280;3745;56.964;24.128;2024-03-06T12:14:19;102942.16;;;6.23;100.00
7407;BME280;3745;56.964;24.128;2024-03-06T12:17:00;102957.31;;;6.49;100.00
7407;BME280;3745;56.964;24.128;2024-03-06T12:19:33;102965.25;;;6.68;100.00
7407;BME280;3745;56.964;24.128;2024-03-06T12:22:00;102980.03;;;6.77;96.86
7407;BME280;3745;56.964;24.128;2024-03-06T12:24:26;102909.31;;;6.33;93.86
7407;BME280;3745;56.964;24.128;2024-03-06T12:27:06;102961.97;;;6.69;93.81
7407;BME280;3745;56.964;24.128;2024-03-06T12:29:33;102960.78;;;6.77;92.67
7407;BME280;3745;56.964;24.128;2024-03-06T12:32:00;102972.00;;;6.95;90.56
7407;BME280;3745;56.964;24.128;2024-03-06T12:34:26;102952.88;;;6.58;84.35
7407;BME280;3745;56.964;24.128;2024-03-06T12:36:52;102966.59;;;6.63;85.99
7407;BME280;3745;56.964;24.128;2024-03-06T12:39:18;102946.84;;;6.69;86.19
7407;BME280;3745;56.964;24.128;2024-03-06T12:41:51;102948.31;;;6.79;84.72
7407;BME280;3745;56.964;24.128;2024-03-06T12:44:17;102904.28;;;6.59;86.59
7407;BME280;3745;56.964;24.128;2024-03-06T12:46:42;102962.94;;;6.84;80.13
7407;BME280;3745;56.964;24.128;2024-03-06T12:49:08;102959.72;;;7.00;80.25
7407;BME280;3745;56.964;24.128;2024-03-06T12:51:33;102950.53;;;7.00;79.68
7407;BME280;3745;56.964;24.128;2024-03-06T12:53:59;102959.53;;;7.10;79.45
7407;BME280;3745;56.964;24.128;2024-03-06T12:56:26;102935.44;;;7.00;76.23
7407;BME280;3745;56.964;24.128;2024-03-06T12:58:52;102891.31;;;6.66;76.66